Time;durP1;ratioP1;P1;durP2;ratioP2;P2;SDS_P1;SDS_P2;PMS_P1;PMS_P2;Temp;Humidity;BMP_temperature;BMP_pressure;BME280_temperature;BME280_humidity;BME280_pressure;Samples;Min_cycle;Max_cycle;Signal;HPM_P1;HPM_P2
2022/04/02 00:00:50;;;;;;;5.35;1.70;;;0.60;98.60;;;;;;4235155;28;20430;-87
2022/04/02 00:02:53;;;;;;;5.85;1.80;;;1.10;98.80;;;;;;4220512;28;20113;-87
2022/04/02 00:04:54;;;;;;;4.97;1.45;;;0.30;98.50;;;;;;4236571;28;20562;-87
2022/04/02 00:06:56;;;;;;;3.72;1.40;;;1.60;98.90;;;;;;4230023;28;20047;-87
2022/04/02 00:08:57;;;;;;;3.15;1.65;;;1.40;98.90;;;;;;4250624;27;20134;-87
2022/04/02 00:10:59;;;;;;;3.47;1.65;;;0.80;98.90;;;;;;4253614;27;20479;-88
2022/04/02 00:13:00;;;;;;;4.82;1.33;;;0.30;98.60;;;;;;4219275;28;20052;-88
2022/04/02 00:15:02;;;;;;;6.78;1.88;;;0.30;98.60;;;;;;4257452;27;20615;-87
2022/04/02 00:17:03;;;;;;;3.13;1.50;;;-0.90;98.20;;;;;;4252982;27;20047;-87
2022/04/02 00:19:04;;;;;;;3.88;1.63;;;0.20;98.40;;;;;;4224318;28;20048;-87
2022/04/02 00:21:06;;;;;;;3.45;1.52;;;-0.40;98.50;;;;;;4218373;28;20162;-87
2022/04/02 00:25:27;;;;;;;2.15;1.40;;;0.30;98.50;;;;;;4235868;27;20055;-87
2022/04/02 00:27:34;;;;;;;4.00;1.58;;;0.30;99.00;;;;;;4236083;28;20047;-87
2022/04/02 00:29:38;;;;;;;3.92;1.50;;;1.80;99.20;;;;;;4218925;28;20094;-87
2022/04/02 00:31:40;;;;;;;3.85;1.67;;;0.80;98.90;;;;;;4253628;27;20039;-86
2022/04/02 00:33:45;;;;;;;6.00;2.28;;;0.10;98.90;;;;;;4263095;27;20399;-87
2022/04/02 00:35:47;;;;;;;3.88;1.90;;;0.60;99.00;;;;;;4252643;27;20047;-87
2022/04/02 00:37:48;;;;;;;2.65;1.50;;;0.20;98.60;;;;;;4270499;27;20078;-86
2022/04/02 00:39:55;;;;;;;2.55;1.75;;;0.60;98.90;;;;;;4234822;28;20044;-87
2022/04/02 00:41:57;;;;;;;2.90;1.42;;;1.60;99.30;;;;;;4235470;28;20048;-86
2022/04/02 00:44:00;;;;;;;3.67;1.67;;;1.60;99.20;;;;;;4253056;27;20047;-87
2022/04/02 00:46:08;;;;;;;3.88;1.67;;;1.30;98.90;;;;;;4236142;28;20043;-87
2022/04/02 00:48:09;;;;;;;3.30;1.45;;;0.20;98.80;;;;;;4248159;27;20660;-86
2022/04/02 00:50:11;;;;;;;3.78;1.58;;;-1.00;98.70;;;;;;4253100;27;20122;-87
2022/04/02 00:52:13;;;;;;;3.97;1.38;;;0.10;98.80;;;;;;4219472;28;20071;-87
2022/04/02 00:54:17;;;;;;;3.85;1.55;;;-0.10;98.80;;;;;;4235816;28;20097;-87
2022/04/02 00:56:20;;;;;;;3.80;1.67;;;0.20;98.80;;;;;;4236380;28;20054;-87
2022/04/02 00:58:22;;;;;;;3.20;1.90;;;1.20;99.00;;;;;;4235572;27;20115;-87
2022/04/02 01:00:25;;;;;;;7.78;2.47;;;-0.40;98.60;;;;;;4235546;28;20043;-87
2022/04/02 01:02:31;;;;;;;3.47;1.63;;;0.00;98.80;;;;;;4253931;27;20067;-87
2022/04/02 01:04:33;;;;;;;4.72;1.73;;;0.00;99.10;;;;;;4235702;28;20538;-87
2022/04/02 01:06:35;;;;;;;4.35;1.67;;;1.60;99.40;;;;;;4253002;27;20047;-87
2022/04/02 01:08:38;;;;;;;5.68;2.00;;;1.20;99.30;;;;;;4234772;28;20098;-87
2022/04/02 01:10:39;;;;;;;2.63;1.48;;;0.10;98.80;;;;;;4236099;28;20051;-87
2022/04/02 01:12:44;;;;;;;3.65;1.58;;;1.10;99.20;;;;;;4262342;27;20418;-87
2022/04/02 01:14:46;;;;;;;4.22;1.55;;;1.10;99.30;;;;;;4252055;27;20039;-87
2022/04/02 01:16:50;;;;;;;6.97;1.75;;;0.30;99.30;;;;;;4255936;27;20072;-86
2022/04/02 01:18:52;;;;;;;6.47;1.90;;;0.50;99.10;;;;;;4247247;27;20099;-87
2022/04/02 01:20:58;;;;;;;3.75;1.60;;;0.10;99.10;;;;;;4235620;28;20077;-87
2022/04/02 01:23:00;;;;;;;2.83;1.50;;;-0.30;98.90;;;;;;4253488;27;20362;-87
2022/04/02 01:25:02;;;;;;;5.03;1.85;;;0.80;99.20;;;;;;4218359;28;20109;-87
2022/04/02 01:27:03;;;;;;;4.15;2.00;;;0.00;98.80;;;;;;4218964;28;20058;-87
2022/04/02 01:29:06;;;;;;;2.95;1.60;;;-1.10;98.80;;;;;;4259644;27;20425;-87
2022/04/02 01:31:10;;;;;;;3.17;1.73;;;0.00;99.10;;;;;;4257113;27;20049;-87
2022/04/02 01:33:11;;;;;;;4.35;1.55;;;0.60;99.30;;;;;;4235627;28;20428;-87
2022/04/02 01:35:14;;;;;;;3.92;1.50;;;0.70;99.60;;;;;;4218271;28;20127;-87
2022/04/02 01:37:17;;;;;;;3.58;1.60;;;0.90;99.50;;;;;;4234933;28;20072;-87
2022/04/02 01:39:19;;;;;;;4.13;1.70;;;-0.10;99.40;;;;;;4246305;27;20148;-86
2022/04/02 01:41:20;;;;;;;2.88;1.40;;;0.60;99.50;;;;;;4253673;27;20123;-86
2022/04/02 01:43:24;;;;;;;4.28;1.60;;;1.00;99.80;;;;;;4232727;28;20090;-87
2022/04/02 01:45:25;;;;;;;3.03;1.42;;;0.80;99.60;;;;;;4246689;27;20047;-87
2022/04/02 01:47:27;;;;;;;3.17;1.88;;;0.20;99.70;;;;;;4219841;28;20081;-87
2022/04/02 01:49:29;;;;;;;3.78;1.60;;;1.00;99.90;;;;;;4255112;27;20077;-87
2022/04/02 01:51:32;;;;;;;5.82;1.50;;;1.00;99.90;;;;;;4218611;28;20048;-87
2022/04/02 01:53:35;;;;;;;6.90;2.08;;;-0.40;99.30;;;;;;4218726;28;20400;-87
2022/04/02 01:55:37;;;;;;;4.80;1.55;;;0.20;99.90;;;;;;4218462;28;20044;-87
2022/04/02 01:57:39;;;;;;;5.18;1.70;;;0.90;99.90;;;;;;4243870;27;20043;-87
2022/04/02 01:59:44;;;;;;;3.65;1.75;;;1.10;99.90;;;;;;4270974;27;20447;-86
2022/04/02 02:01:44;;;;;;;2.92;1.35;;;0.70;99.90;;;;;;4253535;27;20062;-87
2022/04/02 02:03:46;;;;;;;3.35;1.23;;;-0.30;99.90;;;;;;4253727;27;20035;-87
2022/04/02 02:05:46;;;;;;;3.40;1.27;;;1.20;99.90;;;;;;4253617;27;20094;-87
2022/04/02 02:07:51;;;;;;;2.58;1.30;;;0.30;99.90;;;;;;4218080;28;20512;-87
2022/04/02 02:09:57;;;;;;;3.25;1.50;;;-0.30;99.90;;;;;;4246256;27;20062;-87
2022/04/02 02:12:00;;;;;;;4.35;1.58;;;0.90;99.90;;;;;;4239017;27;20058;-86
2022/04/02 02:14:02;;;;;;;2.33;1.30;;;-1.20;99.50;;;;;;4252352;27;20591;-87
2022/04/02 02:16:02;;;;;;;4.57;1.70;;;0.30;99.90;;;;;;4240619;27;20050;-86
2022/04/02 02:18:03;;;;;;;3.28;1.48;;;-0.40;99.90;;;;;;4255336;27;20042;-86
2022/04/02 02:20:07;;;;;;;7.53;1.75;;;-0.40;99.80;;;;;;4252834;27;20075;-86
2022/04/02 02:22:09;;;;;;;3.97;1.30;;;-0.50;99.90;;;;;;4271215;27;20043;-85
2022/04/02 02:24:11;;;;;;;6.25;1.70;;;-0.10;99.90;;;;;;4266954;27;20860;-86
2022/04/02 02:26:13;;;;;;;6.03;1.30;;;-0.80;99.90;;;;;;4254244;27;20035;-87
2022/04/02 02:28:19;;;;;;;5.32;1.67;;;0.60;99.90;;;;;;4253826;27;20035;-87
2022/04/02 02:30:21;;;;;;;7.38;1.73;;;0.00;99.90;;;;;;4261549;27;20390;-86
2022/04/02 02:32:25;;;;;;;7.18;2.00;;;0.70;99.90;;;;;;4237729;28;20491;-86
2022/04/02 02:36:57;;;;;;;3.35;1.65;;;-0.10;99.90;;;;;;4260889;27;20047;-87
2022/04/02 02:38:59;;;;;;;2.15;1.20;;;-0.60;99.90;;;;;;4236137;28;20055;-87
2022/04/02 02:41:04;;;;;;;6.90;1.50;;;-0.70;99.90;;;;;;4237254;28;20051;-87
2022/04/02 02:43:06;;;;;;;3.05;1.50;;;-0.70;99.90;;;;;;4257305;27;20031;-86
2022/04/02 02:45:09;;;;;;;1.77;1.02;;;0.60;99.90;;;;;;4221235;28;20108;-86
2022/04/02 02:47:12;;;;;;;3.13;1.40;;;-0.80;99.90;;;;;;4253937;27;20049;-86
2022/04/02 02:49:14;;;;;;;5.03;1.35;;;-1.00;99.90;;;;;;4235533;28;20519;-86
2022/04/02 02:51:20;;;;;;;5.43;1.52;;;-0.20;99.90;;;;;;4236178;28;20118;-86
2022/04/02 02:53:23;;;;;;;3.17;1.83;;;-0.70;99.90;;;;;;4236697;28;20528;-87
2022/04/02 02:55:25;;;;;;;6.03;1.42;;;-0.80;99.90;;;;;;4219859;28;20562;-87
2022/04/02 02:57:28;;;;;;;4.78;1.63;;;-1.90;99.90;;;;;;4236206;28;20044;-86
2022/04/02 02:59:29;;;;;;;4.07;1.45;;;-0.80;99.90;;;;;;4219378;28;20055;-87
2022/04/02 03:01:33;;;;;;;2.50;1.17;;;-0.40;99.90;;;;;;4265612;27;20511;-87
2022/04/02 03:03:34;;;;;;;5.10;1.85;;;-0.20;99.90;;;;;;4236157;28;20044;-87
2022/04/02 03:05:36;;;;;;;2.58;1.25;;;-0.70;99.90;;;;;;4271075;27;20047;-87
2022/04/02 03:07:49;;;;;;;6.82;1.58;;;-0.80;99.90;;;;;;4253424;28;20403;-88
2022/04/02 03:09:52;;;;;;;5.78;1.05;;;-0.80;99.90;;;;;;4253307;28;20039;-87
2022/04/02 03:11:55;;;;;;;3.47;1.50;;;0.60;99.90;;;;;;4253773;28;20043;-86
2022/04/02 03:13:56;;;;;;;3.45;1.48;;;0.10;99.90;;;;;;4236512;28;20040;-86
2022/04/02 03:15:59;;;;;;;3.60;1.40;;;-1.90;99.90;;;;;;4241913;28;20062;-87
2022/04/02 03:18:04;;;;;;;6.95;1.52;;;0.10;99.90;;;;;;4257513;27;20043;-86
2022/04/02 03:20:06;;;;;;;2.63;1.75;;;-1.30;99.90;;;;;;4252982;28;20502;-86
2022/04/02 03:22:09;;;;;;;4.47;1.40;;;-0.90;99.90;;;;;;4271152;27;20455;-86
2022/04/02 03:24:11;;;;;;;4.22;1.20;;;0.30;99.90;;;;;;4235855;28;20097;-86
2022/04/02 03:26:15;;;;;;;4.40;1.60;;;-0.90;99.90;;;;;;4253750;28;20411;-86
2022/04/02 03:28:17;;;;;;;3.95;1.25;;;-0.30;99.90;;;;;;4271583;27;20410;-86
2022/04/02 03:30:20;;;;;;;5.35;1.52;;;-0.20;99.90;;;;;;4233192;28;20047;-86
2022/04/02 03:32:22;;;;;;;3.10;1.23;;;0.00;99.90;;;;;;4222147;28;20478;-86
2022/04/02 03:34:23;;;;;;;3.85;1.30;;;0.30;99.90;;;;;;4238912;28;20043;-86
2022/04/02 03:36:27;;;;;;;3.35;1.50;;;-1.20;99.90;;;;;;4240134;28;20074;-86
2022/04/02 03:38:29;;;;;;;3.45;1.23;;;-1.10;99.90;;;;;;4248464;27;20104;-86
2022/04/02 03:40:31;;;;;;;4.53;1.38;;;-0.90;99.90;;;;;;4258791;27;20110;-86
2022/04/02 03:42:35;;;;;;;7.18;2.20;;;-1.20;99.90;;;;;;4239913;28;20419;-86
2022/04/02 03:44:38;;;;;;;6.50;1.20;;;-0.70;99.90;;;;;;4222970;28;20500;-86
2022/04/02 03:49:04;;;;;;;1.52;1.15;;;0.40;99.90;;;;;;4257713;27;20047;-86
2022/04/02 03:51:06;;;;;;;1.33;0.80;;;-0.90;99.90;;;;;;4260822;27;20046;-86
2022/04/02 03:53:11;;;;;;;2.20;1.00;;;-0.70;99.90;;;;;;4275922;27;20493;-86
2022/04/02 03:55:17;;;;;;;4.57;0.90;;;-1.30;99.90;;;;;;4242719;27;20145;-86
2022/04/02 03:57:19;;;;;;;2.70;0.93;;;-1.20;99.90;;;;;;4263136;27;20046;-86
2022/04/02 03:59:22;;;;;;;3.92;0.75;;;0.60;99.90;;;;;;4274777;27;20043;-86
2022/04/02 04:01:34;;;;;;;1.73;0.90;;;-1.00;99.90;;;;;;4241364;27;20434;-86
2022/04/02 04:03:38;;;;;;;3.20;1.30;;;0.20;99.90;;;;;;4266523;27;20038;-86
2022/04/02 04:05:39;;;;;;;4.25;1.13;;;-1.00;99.90;;;;;;4255273;27;20426;-86
2022/04/02 04:07:41;;;;;;;4.32;1.00;;;-1.00;99.90;;;;;;4257908;27;20087;-87
2022/04/02 04:09:42;;;;;;;2.15;0.70;;;-1.00;99.90;;;;;;4247823;27;20040;-87
2022/04/02 04:11:44;;;;;;;2.72;1.15;;;-1.00;99.90;;;;;;4239493;27;20086;-86
2022/04/02 04:13:49;;;;;;;3.97;1.00;;;-1.10;99.90;;;;;;4275348;27;20034;-86
2022/04/02 04:15:50;;;;;;;5.40;0.93;;;-0.80;99.90;;;;;;4264883;27;20050;-87
2022/04/02 04:17:58;;;;;;;4.18;1.23;;;-1.00;99.90;;;;;;4259331;27;20131;-86
2022/04/02 04:20:00;;;;;;;1.77;0.77;;;-1.00;99.90;;;;;;4274889;27;20039;-87
2022/04/02 04:22:03;;;;;;;2.10;1.20;;;0.20;99.90;;;;;;4239162;28;20067;-86
2022/04/02 04:24:08;;;;;;;6.05;1.00;;;-1.00;99.90;;;;;;4256213;27;20597;-86
2022/04/02 04:26:11;;;;;;;4.18;1.08;;;0.10;99.90;;;;;;4257473;27;20043;-86
2022/04/02 04:28:15;;;;;;;3.67;0.90;;;0.20;99.90;;;;;;4255800;27;20525;-87
2022/04/02 04:30:18;;;;;;;3.08;1.10;;;-1.00;99.90;;;;;;4223422;28;20044;-87
2022/04/02 04:32:19;;;;;;;4.38;1.10;;;-1.00;99.90;;;;;;4257322;27;20141;-86
2022/04/02 04:34:21;;;;;;;7.80;1.83;;;-0.80;99.90;;;;;;4253269;27;20426;-87
2022/04/02 04:36:24;;;;;;;3.42;0.95;;;0.20;99.90;;;;;;4238647;28;20130;-85
2022/04/02 04:38:25;;;;;;;5.78;2.15;;;-0.80;99.90;;;;;;4255213;27;20486;-87
2022/04/02 04:40:34;;;;;;;3.13;1.00;;;0.20;99.90;;;;;;4221673;28;20044;-87
2022/04/02 04:42:36;;;;;;;5.65;1.38;;;-1.00;99.90;;;;;;4263673;27;20039;-86
2022/04/02 04:44:37;;;;;;;6.85;1.35;;;-0.60;99.90;;;;;;4254621;27;20051;-86
2022/04/02 04:46:40;;;;;;;2.45;1.30;;;0.00;99.90;;;;;;4220942;28;20558;-86
2022/04/02 04:48:44;;;;;;;3.83;1.42;;;-0.20;99.90;;;;;;4265031;27;20383;-87
2022/04/02 04:50:44;;;;;;;3.90;1.58;;;-0.10;99.90;;;;;;4273031;27;20046;-86
2022/04/02 04:52:47;;;;;;;4.05;1.20;;;-0.50;99.90;;;;;;4237674;28;20111;-86
2022/04/02 04:54:50;;;;;;;6.55;1.70;;;0.60;99.90;;;;;;4272817;27;20035;-87
2022/04/02 04:56:54;;;;;;;5.28;1.42;;;-0.20;99.90;;;;;;4237144;28;20046;-85
2022/04/02 04:59:01;;;;;;;6.80;1.90;;;0.80;99.90;;;;;;4243145;27;20046;-86
2022/04/02 05:01:02;;;;;;;5.95;1.60;;;0.30;99.90;;;;;;4237653;28;20050;-85
2022/04/02 05:03:04;;;;;;;7.53;1.40;;;0.80;99.90;;;;;;4236654;28;20081;-85
2022/04/02 05:05:07;;;;;;;4.53;1.73;;;-0.10;99.90;;;;;;4254584;27;20053;-86
2022/04/02 05:07:09;;;;;;;3.33;1.55;;;-0.10;99.90;;;;;;4254662;27;20043;-85
2022/04/02 05:09:10;;;;;;;3.42;1.55;;;0.90;99.90;;;;;;4253701;27;20051;-85
2022/04/02 05:11:13;;;;;;;3.47;1.40;;;-0.20;99.90;;;;;;4219096;28;20582;-86
2022/04/02 05:13:20;;;;;;;3.40;1.48;;;0.70;99.90;;;;;;4232891;27;20801;-86
2022/04/02 05:15:24;;;;;;;6.18;1.77;;;-0.10;99.90;;;;;;4252666;27;20094;-86
2022/04/02 05:17:25;;;;;;;3.33;1.30;;;0.10;99.90;;;;;;4271091;27;20045;-85
2022/04/02 05:19:28;;;;;;;3.83;1.50;;;0.60;99.90;;;;;;4219858;28;20044;-85
2022/04/02 05:21:29;;;;;;;2.80;1.70;;;0.70;99.90;;;;;;4227947;28;20077;-86
2022/04/02 05:23:30;;;;;;;3.55;1.45;;;-0.10;99.90;;;;;;4252729;27;20062;-86
2022/04/02 05:25:35;;;;;;;1.98;1.25;;;0.50;99.90;;;;;;4271095;27;20058;-86
2022/04/02 05:27:36;;;;;;;3.22;1.40;;;-0.10;99.90;;;;;;4262837;27;20038;-86
2022/04/02 05:29:37;;;;;;;3.00;1.27;;;0.10;99.90;;;;;;4219033;28;20060;-86
2022/04/02 05:31:43;;;;;;;7.13;1.55;;;0.90;99.90;;;;;;4253455;27;20047;-86
2022/04/02 05:33:45;;;;;;;3.28;1.42;;;-0.20;99.90;;;;;;4228140;28;20047;-86
2022/04/02 05:35:48;;;;;;;4.03;1.60;;;0.30;99.90;;;;;;4253512;27;20043;-86
2022/04/02 05:37:49;;;;;;;4.38;1.83;;;1.10;99.90;;;;;;4252183;27;20383;-86
2022/04/02 05:39:50;;;;;;;4.45;1.83;;;0.20;99.90;;;;;;4251800;27;20084;-86
2022/04/02 05:41:53;;;;;;;4.28;1.60;;;0.90;99.90;;;;;;4250113;27;20039;-86
2022/04/02 05:43:54;;;;;;;6.13;1.85;;;-0.10;99.90;;;;;;4218145;28;20491;-86
2022/04/02 05:45:55;;;;;;;4.65;1.50;;;1.00;99.90;;;;;;4264323;27;20049;-86
2022/04/02 05:47:57;;;;;;;5.38;1.33;;;0.10;99.90;;;;;;4249452;27;20075;-86
2022/04/02 05:49:58;;;;;;;2.63;1.40;;;0.10;99.90;;;;;;4219599;28;20131;-86
2022/04/02 05:52:00;;;;;;;9.77;1.90;;;0.20;99.90;;;;;;4253021;27;20050;-86
2022/04/02 05:54:02;;;;;;;4.53;1.42;;;0.20;99.90;;;;;;4237592;27;20134;-86
2022/04/02 05:56:03;;;;;;;3.72;1.70;;;0.30;99.90;;;;;;4269629;27;20035;-85
2022/04/02 05:58:05;;;;;;;6.50;1.85;;;0.30;99.90;;;;;;4250432;27;20047;-85
2022/04/02 06:00:08;;;;;;;7.05;1.80;;;0.30;99.90;;;;;;4251232;27;20076;-85
2022/04/02 06:02:12;;;;;;;5.88;1.98;;;0.30;99.90;;;;;;4269520;27;20043;-85
2022/04/02 06:04:14;;;;;;;4.75;2.55;;;0.20;99.90;;;;;;4251347;27;20047;-86
2022/04/02 06:06:16;;;;;;;4.57;1.70;;;0.90;99.90;;;;;;4245872;27;20048;-85
2022/04/02 06:08:17;;;;;;;3.15;1.65;;;0.60;99.90;;;;;;4252187;27;20054;-85
2022/04/02 06:10:24;;;;;;;3.17;1.48;;;1.80;99.90;;;;;;4251830;27;20054;-86
2022/04/02 06:12:27;;;;;;;4.47;1.63;;;0.80;99.90;;;;;;4233679;28;20511;-85
2022/04/02 06:14:31;;;;;;;3.83;1.52;;;1.40;99.90;;;;;;4216956;28;20044;-84
2022/04/02 06:16:31;;;;;;;14.18;3.40;;;0.70;99.90;;;;;;4233207;27;20051;-85
2022/04/02 06:18:32;;;;;;;26.50;7.00;;;1.40;99.90;;;;;;4251330;27;20104;-85
2022/04/02 06:20:34;;;;;;;30.40;7.55;;;1.80;99.90;;;;;;4252540;27;20051;-85
2022/04/02 06:22:36;;;;;;;27.65;7.85;;;0.60;99.90;;;;;;4249681;27;20078;-85
2022/04/02 06:24:38;;;;;;;16.80;6.00;;;0.90;99.90;;;;;;4259335;27;20050;-86
2022/04/02 06:26:40;;;;;;;9.73;4.20;;;0.30;99.90;;;;;;4251112;27;20050;-85
2022/04/02 06:28:43;;;;;;;9.48;2.58;;;2.30;99.90;;;;;;4249397;27;20122;-86
2022/04/02 06:30:44;;;;;;;6.75;2.25;;;1.60;99.90;;;;;;4240849;27;20458;-87
2022/04/02 06:32:46;;;;;;;5.93;2.67;;;1.00;99.90;;;;;;4250580;27;20102;-87
2022/04/02 06:34:50;;;;;;;3.90;1.55;;;1.90;99.90;;;;;;4251017;27;20031;-87
2022/04/02 06:36:52;;;;;;;2.47;1.30;;;2.50;99.90;;;;;;4242148;27;20051;-87
2022/04/02 06:38:52;;;;;;;6.13;1.30;;;1.40;99.90;;;;;;4263377;27;20049;-88
2022/04/02 06:40:54;;;;;;;3.53;1.58;;;1.10;99.90;;;;;;4250464;27;20047;-88
2022/04/02 06:42:57;;;;;;;3.30;1.67;;;1.20;99.90;;;;;;4242959;27;20043;-89
2022/04/02 06:44:59;;;;;;;4.43;1.48;;;1.00;99.90;;;;;;4230837;28;20486;-88
2022/04/02 06:47:00;;;;;;;2.92;1.13;;;1.40;99.90;;;;;;4240006;27;20043;-87
2022/04/02 06:49:01;;;;;;;2.60;1.50;;;3.10;99.90;;;;;;4233063;28;20523;-88
2022/04/02 06:51:05;;;;;;;2.80;1.50;;;1.60;99.90;;;;;;4241349;27;20522;-87
2022/04/02 06:53:07;;;;;;;3.03;1.25;;;2.10;99.90;;;;;;4267969;27;20051;-87
2022/04/02 06:55:15;;;;;;;3.00;1.40;;;1.70;99.90;;;;;;4249355;28;20051;-87
2022/04/02 06:57:22;;;;;;;6.05;1.88;;;1.60;99.90;;;;;;4249401;28;20140;-87
2022/04/02 06:59:23;;;;;;;3.30;1.40;;;2.60;99.90;;;;;;4268796;27;20061;-86
2022/04/02 07:01:25;;;;;;;2.60;1.30;;;3.00;99.90;;;;;;4268884;27;20038;-87
2022/04/02 07:03:25;;;;;;;3.40;1.38;;;2.00;99.90;;;;;;4249504;27;20118;-87
2022/04/02 07:05:26;;;;;;;3.40;1.25;;;2.70;99.90;;;;;;4272067;27;20031;-86
2022/04/02 07:07:27;;;;;;;4.45;1.42;;;1.30;99.90;;;;;;4237285;27;20515;-87
2022/04/02 07:09:29;;;;;;;3.00;0.95;;;1.60;99.90;;;;;;4260803;27;20038;-87
2022/04/02 07:11:30;;;;;;;2.45;1.20;;;2.10;99.90;;;;;;4271090;27;20053;-87
2022/04/02 07:13:32;;;;;;;1.65;1.20;;;1.60;99.90;;;;;;4237060;27;20067;-87
2022/04/02 07:15:33;;;;;;;6.15;1.33;;;1.50;99.90;;;;;;4243368;27;20066;-87
2022/04/02 07:17:35;;;;;;;0.98;0.70;;;2.60;99.90;;;;;;4252681;27;20115;-87
2022/04/02 07:19:39;;;;;;;2.17;1.00;;;2.70;99.90;;;;;;4235494;28;20384;-87
2022/04/02 07:21:42;;;;;;;2.08;0.80;;;2.80;99.90;;;;;;4262052;27;20114;-86
2022/04/02 07:23:45;;;;;;;5.10;1.05;;;1.30;99.90;;;;;;4247164;27;20055;-87
2022/04/02 07:25:48;;;;;;;3.10;1.30;;;2.00;99.90;;;;;;4253804;27;20046;-86
2022/04/02 07:27:50;;;;;;;4.55;1.02;;;2.60;99.90;;;;;;4253060;27;20046;-84
2022/04/02 07:29:56;;;;;;;1.77;1.13;;;2.60;99.90;;;;;;4218244;28;20044;-88
2022/04/02 07:31:57;;;;;;;1.60;1.00;;;2.20;99.90;;;;;;4218876;28;20040;-87
2022/04/02 07:33:59;;;;;;;2.05;0.90;;;2.10;99.90;;;;;;4236400;28;20485;-88
2022/04/02 07:36:29;;;;;;;2.97;1.33;;;1.80;99.90;;;;;;4258330;27;20114;-88
2022/04/02 07:38:40;;;;;;;3.58;1.30;;;1.50;99.90;;;;;;4272478;27;20042;-88
2022/04/02 07:40:57;;;;;;;5.65;1.40;;;1.80;99.90;;;;;;4218712;28;20040;-88
2022/04/02 07:43:14;;;;;;;5.03;1.67;;;1.60;99.90;;;;;;4246550;27;20580;-88
2022/04/02 07:45:20;;;;;;;2.97;1.00;;;1.60;99.90;;;;;;4270241;27;20047;-88
2022/04/02 07:47:26;;;;;;;2.20;0.98;;;2.10;99.90;;;;;;4235432;28;20411;-88
2022/04/02 07:49:40;;;;;;;2.53;0.75;;;2.50;99.90;;;;;;4255138;27;20054;-88
2022/04/02 07:51:41;;;;;;;5.25;1.10;;;3.20;99.90;;;;;;4261559;27;20043;-88
2022/04/02 07:53:46;;;;;;;2.50;0.95;;;3.40;99.90;;;;;;4269293;27;20057;-88
2022/04/02 07:55:56;;;;;;;5.20;1.75;;;2.50;99.90;;;;;;4234158;28;20416;-88
2022/04/02 07:58:02;;;;;;;3.25;1.05;;;3.60;99.90;;;;;;4217852;28;20067;-88
2022/04/02 08:00:04;;;;;;;4.13;1.17;;;3.20;99.90;;;;;;4234375;28;20081;-89
2022/04/02 08:02:36;;;;;;;2.83;1.15;;;3.50;99.90;;;;;;4251758;27;20047;-88
2022/04/02 08:04:53;;;;;;;3.20;0.90;;;5.10;99.90;;;;;;4270470;27;20483;-91
2022/04/02 08:06:54;;;;;;;1.90;1.13;;;4.10;99.80;;;;;;4254208;27;20115;-88
2022/04/02 08:08:58;;;;;;;3.28;0.95;;;4.30;99.50;;;;;;4268338;27;20066;-89
2022/04/02 08:11:01;;;;;;;3.80;0.75;;;6.00;99.30;;;;;;4249615;27;20047;-88
2022/04/02 08:13:03;;;;;;;2.17;1.08;;;5.40;99.10;;;;;;4244733;27;20478;-88
2022/04/02 08:15:05;;;;;;;4.78;1.13;;;;;;;;;;4268505;27;20039;-88
2022/04/02 08:17:08;;;;;;;2.60;0.80;;;6.00;98.60;;;;;;4233596;28;20050;-88
2022/04/02 08:19:10;;;;;;;4.18;1.40;;;5.60;97.90;;;;;;4232395;28;20075;-88
2022/04/02 08:21:10;;;;;;;3.17;0.73;;;6.40;97.60;;;;;;4249825;27;20082;-87
2022/04/02 08:23:11;;;;;;;4.20;1.05;;;5.60;97.10;;;;;;4231950;28;20052;-88
2022/04/02 08:25:15;;;;;;;3.00;1.20;;;6.70;97.30;;;;;;4250141;27;20050;-87
2022/04/02 08:27:25;;;;;;;4.47;0.63;;;6.30;96.80;;;;;;4250484;27;20399;-87
2022/04/02 08:29:35;;;;;;;2.00;0.90;;;;;;;;;;4215198;28;20052;-88
2022/04/02 08:31:57;;;;;;;2.90;1.13;;;;;;;;;;4232153;28;20043;-87
2022/04/02 08:34:04;;;;;;;4.70;1.27;;;;;;;;;;4250515;27;20031;-87
2022/04/02 08:36:32;;;;;;;2.67;0.80;;;5.90;97.10;;;;;;4231841;28;20047;-88
2022/04/02 08:38:40;;;;;;;3.05;0.77;;;;;;;;;;4235754;27;20039;-88
2022/04/02 08:40:50;;;;;;;1.42;1.02;;;;;;;;;;4232982;28;20130;-88
2022/04/02 08:43:03;;;;;;;4.20;0.90;;;;;;;;;;4215917;28;20078;-87
2022/04/02 08:45:14;;;;;;;4.38;0.73;;;6.90;95.30;;;;;;4224305;28;20527;-88
2022/04/02 08:47:27;;;;;;;2.20;0.70;;;;;;;;;;4250117;27;20043;-88
2022/04/02 08:49:42;;;;;;;2.28;1.05;;;;;;;;;;4250100;27;20120;-88
2022/04/02 08:51:46;;;;;;;6.32;1.30;;;7.80;94.20;;;;;;4215051;28;20070;-88
2022/04/02 08:54:04;;;;;;;3.88;0.80;;;9.00;91.60;;;;;;4233324;27;20047;-88
2022/04/02 08:56:07;;;;;;;3.42;1.05;;;;;;;;;;4253815;27;20049;-89
2022/04/02 08:58:09;;;;;;;3.03;1.08;;;9.50;82.00;;;;;;4236069;27;20050;-88
2022/04/02 09:00:15;;;;;;;3.03;0.77;;;10.10;86.90;;;;;;4251408;27;20126;-87
2022/04/02 09:02:19;;;;;;;3.30;1.02;;;;;;;;;;4251383;27;20039;-87
2022/04/02 09:04:38;;;;;;;2.58;1.27;;;;;;;;;;4263827;27;20405;-88
2022/04/02 09:07:01;;;;;;;0.70;0.40;;;;;;;;;;4267689;27;20403;-87
2022/04/02 09:09:06;;;;;;;7.88;0.68;;;;;;;;;;4265079;27;20041;-88
2022/04/02 09:11:22;;;;;;;2.95;0.60;;;;;;;;;;4232129;28;20492;-87
2022/04/02 09:13:40;;;;;;;2.47;0.57;;;;;;;;;;4266778;27;20049;-88
2022/04/02 09:15:41;;;;;;;1.60;1.08;;;;;;;;;;4244059;27;20043;-88
2022/04/02 09:18:02;;;;;;;2.72;1.00;;;;;;;;;;4231672;28;20062;-88
2022/04/02 09:20:13;;;;;;;1.50;0.80;;;;;;;;;;4232643;28;20077;-88
2022/04/02 09:22:36;;;;;;;1.02;0.60;;;;;;;;;;4232963;28;20419;-86
2022/04/02 09:24:38;;;;;;;7.13;0.98;;;;;;;;;;4272419;27;20779;-89
2022/04/02 09:26:54;;;;;;;2.80;1.00;;;;;;;;;;4268926;27;20046;-87
2022/04/02 09:29:10;;;;;;;3.53;1.00;;;;;;;;;;4216335;28;20052;-88
2022/04/02 09:31:30;;;;;;;1.98;1.02;;;;;;;;;;4249013;27;20047;-88
2022/04/02 09:33:41;;;;;;;2.00;0.80;;;;;;;;;;4231072;27;20095;-89
2022/04/02 09:35:48;;;;;;;2.00;0.77;;;;;;;;;;4231046;28;20055;-88
2022/04/02 09:38:10;;;;;;;1.00;0.60;;;;;;;;;;4249298;27;20104;-88
2022/04/02 09:40:12;;;;;;;4.15;0.90;;;;;;;;;;4210766;27;20047;-87
2022/04/02 09:42:13;;;;;;;3.17;1.38;;;;;;;;;;4235201;27;20118;-88
2022/04/02 09:44:18;;;;;;;1.10;0.70;;;;;;;;;;4231008;28;20044;-87
2022/04/02 09:46:45;;;;;;;2.08;0.50;;;;;;;;;;4233518;27;20039;-87
2022/04/02 09:48:56;;;;;;;3.03;0.85;;;;;;;;;;4213931;28;20124;-88
2022/04/02 09:50:57;;;;;;;5.25;1.20;;;;;;;;;;4213832;28;20056;-87
2022/04/02 09:53:19;;;;;;;3.17;0.90;;;;;;;;;;4213933;28;20051;-87
2022/04/02 09:55:27;;;;;;;2.58;0.70;;;;;;;;;;4231083;28;20031;-88
2022/04/02 09:57:46;;;;;;;1.90;0.82;;;;;;;;;;4230965;28;20039;-87
2022/04/02 10:00:17;;;;;;;1.48;0.50;;;;;;;;;;4229816;28;20167;-89
2022/04/02 10:02:34;;;;;;;1.60;0.80;;;;;;;;;;4205525;28;20095;-88
2022/04/02 10:04:54;;;;;;;3.55;0.70;;;;;;;;;;4245649;27;20047;-88
2022/04/02 10:06:56;;;;;;;1.15;0.60;;;;;;;;;;4256872;27;20050;-87
2022/04/02 10:09:13;;;;;;;1.77;0.80;;;;;;;;;;4227429;28;20047;-86
2022/04/02 10:11:18;;;;;;;4.93;1.02;;;;;;;;;;4248206;27;20050;-86
2022/04/02 10:13:23;;;;;;;4.43;0.73;;;;;;;;;;4263357;27;20098;-87
2022/04/02 10:15:24;;;;;;;4.43;0.65;;;;;;;;;;4259172;27;20106;-86
2022/04/02 10:17:28;;;;;;;5.22;0.95;;;;;;;;;;4231915;27;20207;-87
2022/04/02 10:19:30;;;;;;;1.58;0.70;;;;;;;;;;4247149;27;20047;-88
2022/04/02 10:21:35;;;;;;;2.60;0.60;;;;;;;;;;4239918;27;20200;-88
2022/04/02 10:23:37;;;;;;;1.00;0.70;;;;;;;;;;4232851;27;20056;-88
2022/04/02 10:25:48;;;;;;;0.70;0.50;;;;;;;;;;4248179;27;20055;-88
2022/04/02 10:27:51;;;;;;;1.90;0.60;;;;;;;;;;4255456;27;20066;-88
2022/04/02 10:30:01;;;;;;;2.63;0.63;;;;;;;;;;4264825;27;20046;-88
2022/04/02 10:32:15;;;;;;;2.33;0.73;;;;;;;;;;4265537;27;20042;-89
2022/04/02 10:34:22;;;;;;;2.08;0.70;;;;;;;;;;4251817;27;20047;-87
2022/04/02 10:36:23;;;;;;;5.93;0.95;;;;;;;;;;4238237;27;20035;-87
2022/04/02 10:38:32;;;;;;;1.45;0.68;;;;;;;;;;4267618;27;20038;-89
2022/04/02 10:40:37;;;;;;;3.80;1.05;;;;;;;;;;4250081;27;20478;-89
2022/04/02 10:42:43;;;;;;;1.98;0.95;;;;;;;;;;4265905;27;20075;-88
2022/04/02 10:44:50;;;;;;;3.80;1.65;;;;;;;;;;4253458;27;20176;-88
2022/04/02 10:46:53;;;;;;;3.33;0.60;;;;;;;;;;4270336;27;20038;-87
2022/04/02 10:48:59;;;;;;;4.30;0.95;;;;;;;;;;4254985;27;20476;-87
2022/04/02 10:51:02;;;;;;;1.30;0.68;;;;;;;;;;4258574;27;20117;-90
2022/04/02 10:53:03;;;;;;;2.95;0.88;;;;;;;;;;4231598;28;20081;-89
2022/04/02 10:55:05;;;;;;;4.05;1.05;;;;;;;;;;4235981;28;20059;-89
2022/04/02 10:57:06;;;;;;;2.78;0.70;;;;;;;;;;4249083;28;20039;-89
2022/04/02 10:59:11;;;;;;;1.58;0.60;;;;;;;;;;4231608;28;20078;-88
2022/04/02 11:01:12;;;;;;;1.13;1.02;;;;;;;;;;4263580;27;20046;-90
2022/04/02 11:03:24;;;;;;;3.72;0.80;;;;;;;;;;4266949;27;20038;-89
2022/04/02 11:05:29;;;;;;;2.42;0.90;;;;;;;;;;4267033;27;20043;-90
2022/04/02 11:07:34;;;;;;;2.50;0.80;;;;;;;;;;4247867;28;20039;-89
2022/04/02 11:09:41;;;;;;;5.15;1.40;;;;;;;;;;4266463;27;20042;-89
2022/04/02 11:11:52;;;;;;;2.88;0.85;;;;;;;;;;4247441;28;20055;-89
2022/04/02 11:14:06;;;;;;;5.53;1.40;;;;;;;;;;4230772;28;20070;-88
2022/04/02 11:16:13;;;;;;;2.55;0.88;;;;;;;;;;4227609;28;20039;-89
2022/04/02 11:18:18;;;;;;;4.45;0.88;;;;;;;;;;4268131;27;20091;-89
2022/04/02 11:20:22;;;;;;;1.80;0.90;;;;;;;;;;4231791;28;20354;-89
2022/04/02 11:22:26;;;;;;;2.42;0.60;;;;;;;;;;4249730;28;20055;-89